createdAt,value
2023-05-10T00:03:10.522Z,97692.09
2023-05-10T00:08:14.649Z,97704.59
2023-05-10T00:13:17.549Z,97694.75
2023-05-10T00:18:20.379Z,97699.94
2023-05-10T00:23:24.484Z,97694.75
2023-05-10T00:28:29.080Z,97694.09
2023-05-10T00:33:32.998Z,97691.41
2023-05-10T00:38:37.180Z,97695.75
2023-05-10T00:43:39.914Z,97694.25
2023-05-10T00:48:43.036Z,97702.44
2023-05-10T00:53:47.977Z,97696.91
2023-05-10T00:58:50.925Z,97704.78
2023-05-10T01:03:54.385Z,97687.22
2023-05-10T01:08:58.673Z,97706.25
2023-05-10T01:14:01.513Z,97702.91
2023-05-10T01:19:07.899Z,97707.72
2023-05-10T01:24:43.897Z,97703.56
2023-05-10T01:30:16.133Z,97711.72
2023-05-10T01:35:28.611Z,97711.03
2023-05-10T01:40:37.965Z,97713.03
2023-05-10T01:45:47.413Z,97715.41
2023-05-10T01:50:53.652Z,97719.25
2023-05-10T01:55:58.149Z,97723.75
2023-05-10T02:01:05.109Z,97713.91
2023-05-10T02:06:11.158Z,97709.69
2023-05-10T02:11:15.307Z,97715.38
2023-05-10T02:16:20.390Z,97719.03
2023-05-10T02:21:26.041Z,97721.56
2023-05-10T02:26:29.792Z,97727.72
2023-05-10T02:31:34.185Z,97731.94
2023-05-10T02:36:40.240Z,97736.28
2023-05-10T02:41:44.020Z,97743.13
2023-05-10T02:46:47.819Z,97733.75
2023-05-10T02:51:55.740Z,97743.13
2023-05-10T02:57:01.463Z,97737.28
2023-05-10T03:02:05.607Z,97738.28
2023-05-10T03:07:10.330Z,97738.41
2023-05-10T03:12:21.026Z,97736.59
2023-05-10T03:17:31.343Z,97741.78
2023-05-10T03:22:40.278Z,97744.63
2023-05-10T03:27:45.627Z,97747.44
2023-05-10T03:32:48.720Z,97750.78
2023-05-10T03:37:55.061Z,97758.97
2023-05-10T03:42:57.885Z,97761.78
2023-05-10T03:48:00.877Z,97756.44
2023-05-10T03:53:05.156Z,97760.94
2023-05-10T03:58:12.605Z,97760.47
2023-05-10T04:03:16.211Z,97757.97
2023-05-10T04:08:20.719Z,97767.50
2023-05-10T04:26:49.562Z,97776.94
2023-05-10T04:31:52.802Z,97770.59
2023-05-10T04:36:55.638Z,97771.44
2023-05-10T04:41:59.786Z,97777.16
2023-05-10T04:47:03.182Z,97778.19
2023-05-10T04:52:06.495Z,97773.38
2023-05-10T04:57:13.286Z,97783.78
2023-05-10T05:02:16.550Z,97803.19
2023-05-10T05:07:21.324Z,97797.84
2023-05-10T05:12:25.717Z,97806.34
2023-05-10T05:17:28.583Z,97819.91
2023-05-10T05:22:32.687Z,97821.53
2023-05-10T05:27:36.878Z,97834.94
2023-05-10T05:32:39.666Z,97827.28
2023-05-10T05:37:42.603Z,97832.06
2023-05-10T05:42:46.653Z,97837.63
2023-05-10T05:47:50.745Z,97832.53
2023-05-10T05:52:53.698Z,97832.53
2023-05-10T05:57:58.743Z,97833.81
2023-05-10T06:03:02.752Z,97834.34
2023-05-10T06:08:06.231Z,97844.06
2023-05-10T06:13:11.802Z,97844.63
2023-05-10T06:18:17.443Z,97850.84
2023-05-10T06:23:20.174Z,97851.81
2023-05-10T06:28:27.737Z,97858.69
2023-05-10T06:33:34.887Z,97857.69
2023-05-10T06:38:37.814Z,97851.34
2023-05-10T06:43:42.387Z,97864.22
2023-05-10T06:48:45.772Z,97866.75
2023-05-10T06:53:48.574Z,97871.75
2023-05-10T06:58:52.847Z,97875.81
2023-05-10T07:03:55.588Z,97892.06
2023-05-10T07:08:58.422Z,97884.31
2023-05-10T07:14:04.882Z,97883.16
2023-05-10T07:19:08.093Z,97894.56
2023-05-10T07:24:12.478Z,97901.28
2023-05-10T07:29:16.619Z,97900.59
2023-05-10T07:34:19.843Z,97902.59
2023-05-10T07:39:27.542Z,97911.31
2023-05-10T07:44:32.851Z,97918.34
2023-05-10T07:49:36.571Z,97917.16
2023-05-10T07:54:41.806Z,97914.00
2023-05-10T07:59:49.497Z,97921.25
2023-05-10T08:04:52.552Z,97916.66
2023-05-10T08:09:55.304Z,97927.91
2023-05-10T08:14:59.401Z,97926.41
2023-05-10T08:20:02.140Z,97932.09
2023-05-10T08:25:07.703Z,97936.97
2023-05-10T08:30:13.033Z,97933.91
2023-05-10T08:35:18.230Z,97931.31
2023-05-10T08:40:21.985Z,97928.72
2023-05-10T08:45:27.927Z,97935.72
2023-05-10T08:50:32.280Z,97933.59
2023-05-10T08:55:37.684Z,97937.41
2023-05-10T09:00:44.868Z,97947.63
2023-05-10T09:05:48.933Z,97949.97
2023-05-10T09:10:54.146Z,97967.75
2023-05-10T09:16:02.116Z,97963.94
2023-05-10T09:21:12.074Z,97959.94
2023-05-10T09:26:17.060Z,97961.25
2023-05-10T09:31:22.027Z,97966.38
2023-05-10T09:36:25.894Z,97963.22
2023-05-10T09:41:32.038Z,97974.72
2023-05-10T09:46:40.350Z,97978.13
2023-05-10T09:51:43.967Z,97976.88
2023-05-10T09:56:46.770Z,97972.91
2023-05-10T10:01:53.385Z,97978.19
2023-05-10T10:07:05.192Z,97989.84
2023-05-10T10:12:10.575Z,97998.09
2023-05-10T10:17:15.038Z,98001.56
2023-05-10T10:22:18.926Z,98006.66
2023-05-10T10:27:27.125Z,98014.06
2023-05-10T10:32:46.863Z,98012.25
2023-05-10T10:37:52.909Z,98010.16
2023-05-10T10:42:59.362Z,98013.81
2023-05-10T10:48:25.461Z,98003.78
2023-05-10T10:53:30.105Z,98000.19
2023-05-10T10:58:33.653Z,97996.66
2023-05-10T11:03:39.819Z,98002.84
2023-05-10T11:08:48.706Z,97995.09
2023-05-10T11:13:51.850Z,98005.41
2023-05-10T11:19:05.194Z,97999.75
2023-05-10T11:24:16.531Z,98001.81
2023-05-10T11:29:19.781Z,98003.69
2023-05-10T11:34:31.187Z,98003.06
2023-05-10T11:39:36.567Z,98003.16
2023-05-10T11:44:40.078Z,98011.16
2023-05-10T11:49:48.033Z,98013.81
2023-05-10T11:54:53.910Z,98008.69
2023-05-10T11:59:59.101Z,98012.75
2023-05-10T12:05:05.495Z,98018.16
2023-05-10T12:10:12.277Z,98023.31
2023-05-10T12:15:20.882Z,98021.34
2023-05-10T12:20:30.455Z,98021.25
2023-05-10T12:25:36.883Z,98023.13
2023-05-10T12:30:42.340Z,98028.44
2023-05-10T12:35:54.052Z,98031.16
2023-05-10T12:40:58.121Z,98033.28
2023-05-10T12:46:01.047Z,98037.00
2023-05-10T12:51:06.290Z,98039.28
2023-05-10T12:56:10.150Z,98037.63
2023-05-10T13:01:14.588Z,98039.63
2023-05-10T13:06:21.541Z,98050.75
2023-05-10T13:11:24.860Z,98063.97
2023-05-10T13:16:28.140Z,98059.75
2023-05-10T13:21:33.596Z,98067.41
2023-05-10T13:26:40.782Z,98073.38
2023-05-10T13:31:43.819Z,98081.78
2023-05-10T13:36:48.452Z,98069.09
2023-05-10T13:41:51.822Z,98074.91
2023-05-10T13:46:56.300Z,98076.50
2023-05-10T13:52:00.433Z,98079.69
2023-05-10T13:57:04.193Z,98074.03
2023-05-10T14:02:07.330Z,98078.50
2023-05-10T14:07:12.845Z,98075.28
2023-05-10T14:12:17.857Z,98078.00
2023-05-10T14:17:23.175Z,98069.72
2023-05-10T14:22:28.294Z,98069.44
2023-05-10T14:27:31.322Z,98070.78
2023-05-10T14:32:34.867Z,98067.06
2023-05-10T14:37:40.189Z,98063.69
2023-05-10T14:42:45.237Z,98064.25
2023-05-10T14:47:48.128Z,98057.88
2023-05-10T14:52:52.434Z,98065.50
2023-05-10T14:57:55.408Z,98062.25
2023-05-10T15:02:59.443Z,98055.81
2023-05-10T15:08:03.913Z,98056.19
2023-05-10T15:13:08.389Z,98057.78
2023-05-10T15:18:11.340Z,98047.91
2023-05-10T15:23:15.467Z,98050.88
2023-05-10T15:28:20.547Z,98051.13
2023-05-10T15:33:24.282Z,98050.69
2023-05-10T15:38:29.231Z,98061.22
2023-05-10T15:43:33.120Z,98061.84
2023-05-10T15:48:37.005Z,98073.44
2023-05-10T15:53:52.825Z,98074.88
2023-05-10T15:59:03.936Z,98075.66
2023-05-10T16:04:06.844Z,98070.03
2023-05-10T16:09:11.561Z,98081.53
2023-05-10T16:14:14.386Z,98079.16
2023-05-10T16:19:17.335Z,98091.66
2023-05-10T16:24:22.278Z,98098.03
2023-05-10T16:29:25.081Z,98099.63
2023-05-10T16:34:27.975Z,98097.22
2023-05-10T16:39:32.374Z,98095.13
2023-05-10T16:44:35.994Z,98098.09
2023-05-10T16:49:39.469Z,98102.03
2023-05-10T16:54:46.507Z,98102.09
2023-05-10T16:59:49.327Z,98103.41
2023-05-10T17:04:56.090Z,98106.72
2023-05-10T17:10:00.296Z,98106.72
2023-05-10T17:15:05.432Z,98114.19
2023-05-10T17:20:10.310Z,98107.50
2023-05-10T17:25:15.908Z,98103.75
2023-05-10T17:30:24.258Z,98119.66
2023-05-10T17:35:27.149Z,98120.28
2023-05-10T17:40:31.247Z,98112.09
2023-05-10T17:45:34.412Z,98118.44
2023-05-10T17:50:39.536Z,98120.41
2023-05-10T17:55:44.444Z,98133.03
2023-05-10T18:00:47.765Z,98127.28
2023-05-10T18:05:51.428Z,98132.16
2023-05-10T18:10:55.698Z,98142.25
2023-05-10T18:16:06.155Z,98132.66
2023-05-10T18:21:08.902Z,98134.66
2023-05-10T18:26:13.128Z,98127.25
2023-05-10T18:31:16.376Z,98132.06
2023-05-10T18:36:20.860Z,98128.59
2023-05-10T18:41:31.641Z,98127.28
2023-05-10T18:46:35.779Z,98126.66
2023-05-10T18:51:38.568Z,98137.81
2023-05-10T18:56:45.077Z,98135.94
2023-05-10T19:01:49.583Z,98145.53
2023-05-10T19:06:53.938Z,98156.56
2023-05-10T19:11:58.422Z,98148.81
2023-05-10T19:17:01.653Z,98150.31
2023-05-10T19:22:04.516Z,98163.84
2023-05-10T19:27:09.106Z,98174.94
2023-05-10T19:32:12.064Z,98174.19
2023-05-10T19:37:15.494Z,98188.19
2023-05-10T19:42:20.232Z,98185.94
2023-05-10T19:47:23.134Z,98187.06
2023-05-10T19:52:26.518Z,98186.00
2023-05-10T19:57:31.505Z,98183.41
2023-05-10T20:02:38.462Z,98196.22
2023-05-10T20:07:43.180Z,98195.28
2023-05-10T20:12:51.608Z,98191.94
2023-05-10T20:17:54.453Z,98200.59
2023-05-10T20:22:58.640Z,98198.91
2023-05-10T20:28:03.614Z,98202.91
2023-05-10T20:33:07.007Z,98205.34
2023-05-10T20:38:10.544Z,98205.50
2023-05-10T20:43:14.766Z,98210.59
2023-05-10T20:48:17.834Z,98204.63
2023-05-10T20:53:22.238Z,98201.09
2023-05-10T20:58:27.742Z,98201.28
2023-05-10T21:03:30.901Z,98203.03
2023-05-10T21:08:34.567Z,98197.47
2023-05-10T21:13:39.027Z,98190.63
2023-05-10T21:18:41.911Z,98184.50
2023-05-10T21:23:47.108Z,98186.81
2023-05-10T21:28:51.501Z,98191.50
2023-05-10T21:33:54.256Z,98194.06
2023-05-10T21:38:57.293Z,98184.00
2023-05-10T21:44:01.347Z,98191.03
2023-05-10T21:49:04.159Z,98197.13
2023-05-10T21:54:07.328Z,98188.69
2023-05-10T21:59:11.569Z,98196.25
2023-05-10T22:04:23.400Z,98192.50
2023-05-10T22:09:26.085Z,98194.63
2023-05-10T22:14:30.285Z,98197.28
2023-05-10T22:19:33.028Z,98193.34
2023-05-10T22:24:35.869Z,98202.09
2023-05-10T22:29:39.908Z,98211.91
2023-05-10T22:34:43.600Z,98215.13
2023-05-10T22:39:46.536Z,98214.31
2023-05-10T22:44:50.663Z,98215.28
2023-05-10T22:49:55.194Z,98214.44
2023-05-10T22:54:58.199Z,98221.44
2023-05-10T23:00:02.641Z,98223.72
2023-05-10T23:05:07.993Z,98231.84
2023-05-10T23:10:11.462Z,98227.09
2023-05-10T23:15:15.807Z,98230.44
2023-05-10T23:20:19.399Z,98236.91
2023-05-10T23:25:22.711Z,98235.22
2023-05-10T23:30:27.402Z,98233.25
2023-05-10T23:35:30.155Z,98233.25
2023-05-10T23:40:32.846Z,98236.34
2023-05-10T23:45:37.327Z,98231.28
2023-05-10T23:50:45.284Z,98238.44
2023-05-10T23:55:47.984Z,98228.47
